Time;durP1;ratioP1;P1;durP2;ratioP2;P2;SDS_P1;SDS_P2;PMS_P1;PMS_P2;Temp;Humidity;BMP_temperature;BMP_pressure;BME280_temperature;BME280_humidity;BME280_pressure;Samples;Min_cycle;Max_cycle;Signal;HPM_P1;HPM_P2
2022/04/27 00:00:33;;;;;;;14.90;5.72;;;16.30;68.30;;;;;;5033771;28;20022;-74
2022/04/27 00:03:00;;;;;;;15.93;7.57;;;16.20;68.50;;;;;;5033691;28;20029;-72
2022/04/27 00:05:26;;;;;;;16.90;6.75;;;16.10;68.80;;;;;;5033536;28;20085;-72
2022/04/27 00:07:52;;;;;;;12.82;6.10;;;16.10;69.10;;;;;;5033637;28;20029;-74
2022/04/27 00:10:19;;;;;;;10.95;6.18;;;16.00;69.60;;;;;;5033327;28;20525;-71
2022/04/27 00:12:46;;;;;;;14.27;6.28;;;15.90;69.70;;;;;;5033611;28;20033;-74
2022/04/27 00:15:12;;;;;;;11.80;6.20;;;15.80;69.80;;;;;;5033136;28;20055;-73
2022/04/27 00:17:38;;;;;;;13.05;6.47;;;15.80;70.20;;;;;;5033324;28;20095;-71
2022/04/27 00:20:05;;;;;;;13.43;6.40;;;15.80;70.60;;;;;;5032148;28;20029;-72
2022/04/27 00:22:30;;;;;;;11.93;6.40;;;15.80;71.10;;;;;;5033420;28;20025;-73
2022/04/27 00:25:00;;;;;;;13.05;6.75;;;15.70;71.20;;;;;;5033190;28;20546;-73
2022/04/27 00:27:27;;;;;;;11.20;6.00;;;15.70;71.00;;;;;;5033326;28;20025;-73
2022/04/27 00:29:53;;;;;;;10.93;6.55;;;15.60;71.10;;;;;;5033595;28;20029;-71
2022/04/27 00:32:19;;;;;;;11.95;6.22;;;15.60;71.40;;;;;;5033265;28;20079;-70
2022/04/27 00:34:44;;;;;;;12.73;6.13;;;15.60;71.90;;;;;;5033139;28;20104;-70
2022/04/27 00:37:10;;;;;;;10.52;6.72;;;15.60;72.30;;;;;;5033269;28;20037;-72
2022/04/27 00:39:36;;;;;;;10.25;6.13;;;15.60;72.20;;;;;;5033180;28;20470;-70
2022/04/27 00:42:20;;;;;;;10.25;6.20;;;15.50;72.30;;;;;;5033437;28;20025;-70
2022/04/27 00:44:46;;;;;;;10.70;6.57;;;15.50;72.60;;;;;;5032933;28;20029;-70
2022/04/27 00:47:13;;;;;;;11.18;6.00;;;15.50;73.00;;;;;;5015376;28;20033;-72
2022/04/27 00:50:02;;;;;;;10.95;6.57;;;15.40;72.50;;;;;;5033226;28;20026;-70
2022/04/27 00:52:32;;;;;;;11.52;6.60;;;15.30;73.40;;;;;;5033487;28;20087;-71
2022/04/27 00:54:58;;;;;;;11.80;6.40;;;15.30;73.40;;;;;;5032970;28;20426;-72
2022/04/27 00:57:25;;;;;;;12.50;6.35;;;15.20;73.50;;;;;;5033050;28;20034;-71
2022/04/27 00:59:52;;;;;;;13.52;6.55;;;15.20;73.60;;;;;;5033174;28;20029;-71
2022/04/27 01:02:18;;;;;;;12.88;5.90;;;15.20;73.60;;;;;;5032905;28;20025;-70
2022/04/27 01:04:43;;;;;;;10.23;5.88;;;15.20;73.50;;;;;;5032779;28;20375;-70
2022/04/27 01:07:11;;;;;;;12.20;6.78;;;15.20;73.60;;;;;;5033189;28;20036;-70
2022/04/27 01:09:37;;;;;;;11.00;5.68;;;15.10;73.40;;;;;;5032942;28;20029;-70
2022/04/27 01:12:04;;;;;;;10.55;5.78;;;15.10;73.70;;;;;;5032843;28;20026;-70
2022/04/27 01:14:49;;;;;;;9.60;5.45;;;15.10;74.20;;;;;;5032783;28;20084;-70
2022/04/27 01:17:16;;;;;;;12.80;5.95;;;14.90;74.80;;;;;;5032575;28;20053;-71
2022/04/27 01:19:42;;;;;;;14.60;5.18;;;14.90;74.10;;;;;;5032799;28;20021;-70
2022/04/27 01:22:08;;;;;;;15.48;5.80;;;14.90;73.90;;;;;;5033127;28;20064;-71
2022/04/27 01:24:33;;;;;;;9.52;5.65;;;14.90;74.00;;;;;;5036426;28;20067;-70
2022/04/27 01:27:00;;;;;;;8.65;5.03;;;14.80;74.20;;;;;;5036712;28;20356;-70
2022/04/27 01:29:25;;;;;;;9.48;5.20;;;14.70;74.10;;;;;;5036971;28;20490;-70
2022/04/27 01:31:53;;;;;;;8.85;5.00;;;14.70;74.30;;;;;;5036430;28;20022;-71
2022/04/27 01:34:19;;;;;;;9.90;5.10;;;14.70;74.10;;;;;;5036509;28;20017;-71
2022/04/27 01:36:45;;;;;;;9.63;5.13;;;14.70;74.50;;;;;;5036427;28;20049;-71
2022/04/27 01:39:11;;;;;;;9.20;5.03;;;14.70;74.40;;;;;;5036539;28;20033;-72
2022/04/27 01:41:37;;;;;;;9.00;4.82;;;14.70;74.60;;;;;;5036348;28;20036;-71
2022/04/27 01:44:04;;;;;;;11.35;4.88;;;14.60;74.80;;;;;;5036538;28;20022;-71
2022/04/27 01:46:30;;;;;;;10.48;4.50;;;14.60;74.90;;;;;;5036436;28;20139;-70
2022/04/27 01:48:56;;;;;;;8.60;4.85;;;14.60;75.00;;;;;;5036391;28;20042;-71
2022/04/27 01:54:24;;;;;;;9.10;4.70;;;14.60;74.70;;;;;;4983085;28;20553;-71
2022/04/27 01:56:50;;;;;;;11.27;4.43;;;14.50;75.20;;;;;;5027326;28;20050;-72
2022/04/27 01:59:16;;;;;;;8.35;4.60;;;14.50;75.10;;;;;;5036231;28;20025;-72
2022/04/27 02:01:43;;;;;;;8.15;4.22;;;14.50;75.40;;;;;;5036576;28;20033;-72
2022/04/27 02:04:09;;;;;;;11.32;5.07;;;14.60;75.10;;;;;;5036406;28;20098;-71
2022/04/27 02:06:35;;;;;;;8.63;4.65;;;14.60;74.80;;;;;;5036121;28;20029;-71
2022/04/27 02:09:03;;;;;;;8.52;4.63;;;14.60;74.60;;;;;;5035943;28;20037;-73
2022/04/27 02:11:28;;;;;;;8.48;4.55;;;14.60;74.90;;;;;;5036112;28;20083;-70
2022/04/27 02:13:55;;;;;;;8.13;4.93;;;14.60;74.70;;;;;;5035875;28;20029;-71
2022/04/27 02:16:24;;;;;;;10.80;5.22;;;14.50;75.40;;;;;;5035533;28;20064;-70
2022/04/27 02:18:51;;;;;;;10.70;5.03;;;14.50;75.50;;;;;;5036005;28;20071;-72
2022/04/27 02:21:17;;;;;;;10.63;5.20;;;14.50;76.00;;;;;;5035905;28;20033;-72
2022/04/27 02:23:44;;;;;;;10.25;5.18;;;14.50;76.10;;;;;;5035426;28;20029;-72
2022/04/27 02:26:10;;;;;;;12.90;5.40;;;14.50;76.50;;;;;;5035949;28;20429;-71
2022/04/27 02:28:36;;;;;;;9.48;5.88;;;14.40;77.30;;;;;;5035596;28;20029;-73
2022/04/27 02:31:02;;;;;;;9.30;5.40;;;14.40;77.40;;;;;;5035567;28;20033;-71
2022/04/27 02:33:31;;;;;;;10.50;5.50;;;14.40;77.90;;;;;;5035042;28;20033;-70
2022/04/27 02:35:57;;;;;;;12.63;5.43;;;14.40;78.10;;;;;;5034625;28;20403;-70
2022/04/27 02:38:23;;;;;;;12.70;5.97;;;14.40;78.70;;;;;;5035426;28;20052;-71
2022/04/27 02:40:49;;;;;;;11.07;5.65;;;14.40;79.30;;;;;;5035166;28;20049;-71
2022/04/27 02:43:16;;;;;;;10.00;5.60;;;14.40;79.00;;;;;;5035250;28;20028;-72
2022/04/27 02:45:41;;;;;;;15.02;6.00;;;14.30;79.10;;;;;;5035011;28;20022;-71
2022/04/27 02:48:08;;;;;;;7.93;4.97;;;14.30;79.50;;;;;;5035141;28;20379;-70
2022/04/27 02:53:18;;;;;;;12.65;5.80;;;14.40;79.50;;;;;;5035285;28;20124;-70
2022/04/27 02:55:44;;;;;;;8.63;5.25;;;14.40;79.60;;;;;;5034912;28;20021;-70
2022/04/27 02:58:10;;;;;;;12.52;6.00;;;14.30;80.00;;;;;;5034874;28;20042;-71
2022/04/27 03:00:36;;;;;;;10.10;5.40;;;14.30;80.30;;;;;;5034914;28;20105;-71
2022/04/27 03:03:02;;;;;;;10.48;5.22;;;14.20;80.70;;;;;;5034650;28;20474;-72
2022/04/27 03:05:28;;;;;;;10.85;6.03;;;14.20;81.20;;;;;;5034578;28;20088;-71
2022/04/27 03:07:54;;;;;;;13.30;5.70;;;14.10;81.40;;;;;;5034630;28;20446;-73
2022/04/27 03:10:20;;;;;;;10.07;6.00;;;14.10;81.50;;;;;;5034713;28;20143;-73
2022/04/27 03:12:46;;;;;;;9.80;5.40;;;14.00;81.60;;;;;;5034695;28;20040;-73
2022/04/27 03:15:12;;;;;;;11.57;5.60;;;13.90;82.40;;;;;;5034309;28;20050;-71
2022/04/27 03:17:37;;;;;;;13.95;6.22;;;13.90;82.80;;;;;;5034441;28;20034;-71
2022/04/27 03:20:04;;;;;;;11.30;5.60;;;13.80;83.00;;;;;;5034466;28;20021;-73
2022/04/27 03:22:30;;;;;;;11.63;5.32;;;13.80;83.10;;;;;;5034743;28;20060;-73
2022/04/27 03:24:56;;;;;;;8.32;5.03;;;13.80;83.30;;;;;;5034341;28;20540;-74
2022/04/27 03:27:22;;;;;;;12.70;5.50;;;13.80;83.10;;;;;;5034160;28;20029;-74
2022/04/27 03:29:50;;;;;;;7.80;5.10;;;13.80;83.30;;;;;;5034302;28;20025;-73
2022/04/27 03:32:15;;;;;;;9.30;5.22;;;13.80;83.60;;;;;;5034309;28;20025;-73
2022/04/27 03:34:41;;;;;;;10.15;5.78;;;13.90;83.30;;;;;;5034118;28;20021;-73
2022/04/27 03:37:07;;;;;;;10.07;5.00;;;13.80;82.90;;;;;;5034229;28;20087;-72
2022/04/27 03:39:33;;;;;;;9.02;5.07;;;13.80;83.20;;;;;;5034101;28;20026;-73
2022/04/27 03:41:59;;;;;;;11.65;5.28;;;13.80;83.10;;;;;;5033902;28;20033;-75
2022/04/27 03:44:25;;;;;;;17.50;5.25;;;13.80;82.70;;;;;;5033869;28;20463;-74
2022/04/27 03:46:51;;;;;;;8.20;4.60;;;13.80;82.40;;;;;;5033566;28;20470;-73
2022/04/27 03:49:17;;;;;;;9.90;4.57;;;13.90;82.20;;;;;;5033753;28;20383;-76
2022/04/27 03:51:42;;;;;;;8.05;4.70;;;13.80;82.00;;;;;;5033880;28;20029;-73
2022/04/27 03:54:08;;;;;;;11.05;4.50;;;13.80;81.90;;;;;;5033740;28;20037;-73
2022/04/27 03:56:33;;;;;;;9.05;4.78;;;13.70;81.70;;;;;;5033874;28;20029;-73
2022/04/27 03:58:59;;;;;;;8.18;4.65;;;13.70;82.10;;;;;;5033840;28;20107;-72
2022/04/27 04:01:25;;;;;;;9.48;4.32;;;13.70;81.80;;;;;;5033772;28;20083;-72
2022/04/27 04:03:50;;;;;;;8.70;4.47;;;13.70;81.70;;;;;;5015763;28;20592;-71
2022/04/27 04:06:16;;;;;;;10.77;4.78;;;13.70;81.40;;;;;;5033820;28;20025;-70
2022/04/27 04:08:42;;;;;;;8.68;3.92;;;13.60;81.00;;;;;;5033593;28;20029;-72
2022/04/27 04:11:07;;;;;;;8.77;4.35;;;13.60;81.00;;;;;;5033641;28;20079;-71
2022/04/27 04:13:33;;;;;;;9.27;4.10;;;13.50;81.00;;;;;;5033471;28;20021;-72
2022/04/27 04:15:59;;;;;;;12.40;4.28;;;13.50;81.00;;;;;;5032999;28;20446;-70
2022/04/27 04:18:24;;;;;;;8.30;4.60;;;13.40;81.10;;;;;;5033282;28;20171;-74
2022/04/27 04:20:50;;;;;;;11.60;4.00;;;13.40;81.00;;;;;;5033573;28;20028;-69
2022/04/27 04:23:16;;;;;;;8.32;4.60;;;13.40;80.90;;;;;;5033588;28;20424;-71
2022/04/27 04:28:32;;;;;;;;;;;13.40;81.00;;;;;;5033930;28;20104;-72
2022/04/27 04:31:02;;;;;;;7.60;4.47;;;13.40;81.90;;;;;;5016599;28;19936;-69
2022/04/27 04:33:28;;;;;;;6.82;4.20;;;13.30;80.70;;;;;;5033440;28;20072;-72
2022/04/27 04:35:55;;;;;;;8.00;4.68;;;13.40;80.90;;;;;;5032958;28;20029;-72
2022/04/27 04:38:21;;;;;;;12.65;4.70;;;13.40;80.60;;;;;;5033479;28;20041;-70
2022/04/27 04:40:48;;;;;;;10.77;4.90;;;13.40;80.40;;;;;;5033313;28;20022;-72
2022/04/27 04:43:13;;;;;;;7.57;4.38;;;13.40;81.20;;;;;;5033484;28;20028;-71
2022/04/27 04:45:39;;;;;;;8.30;4.35;;;13.50;80.20;;;;;;5017783;28;20034;-72
2022/04/27 04:48:06;;;;;;;9.93;4.50;;;13.50;80.00;;;;;;5019893;28;20029;-71
2022/04/27 04:50:31;;;;;;;10.55;4.93;;;13.50;79.70;;;;;;5035278;28;20093;-71
2022/04/27 04:52:57;;;;;;;8.95;4.40;;;13.50;79.60;;;;;;5033240;28;20108;-72
2022/04/27 04:55:23;;;;;;;9.57;4.70;;;13.60;79.50;;;;;;5032957;28;20032;-73
2022/04/27 04:57:48;;;;;;;8.23;4.30;;;13.60;79.00;;;;;;5034457;28;20029;-73
2022/04/27 05:00:14;;;;;;;9.65;4.43;;;13.60;78.90;;;;;;5019336;28;20101;-75
2022/04/27 05:02:40;;;;;;;9.18;4.50;;;13.70;78.70;;;;;;5035897;28;20486;-75
2022/04/27 05:05:06;;;;;;;7.53;4.47;;;13.80;78.70;;;;;;5037011;28;20026;-71
2022/04/27 05:07:33;;;;;;;8.65;4.32;;;13.80;77.80;;;;;;5037127;28;20029;-75
2022/04/27 05:09:58;;;;;;;9.10;4.18;;;13.90;77.70;;;;;;5037111;28;20459;-75
2022/04/27 05:12:25;;;;;;;7.50;4.00;;;13.80;77.30;;;;;;5037030;28;20036;-74
2022/04/27 05:14:52;;;;;;;6.28;3.92;;;13.80;77.30;;;;;;5036798;28;20029;-75
2022/04/27 05:17:17;;;;;;;8.70;4.10;;;13.80;76.90;;;;;;5036690;28;20075;-73
2022/04/27 05:19:43;;;;;;;10.07;4.45;;;13.80;77.10;;;;;;5037081;28;20108;-73
2022/04/27 05:22:09;;;;;;;7.15;4.07;;;13.90;76.90;;;;;;5036729;28;20471;-77
2022/04/27 05:24:35;;;;;;;8.85;4.50;;;14.00;76.80;;;;;;5035058;28;20025;-73
2022/04/27 05:27:01;;;;;;;9.93;4.40;;;14.10;76.10;;;;;;5036641;28;20056;-71
2022/04/27 05:32:12;;;;;;;10.02;4.30;;;14.30;75.40;;;;;;5022030;28;20555;-75
2022/04/27 05:34:38;;;;;;;7.40;4.10;;;14.40;75.00;;;;;;5036432;28;20338;-73
2022/04/27 05:37:04;;;;;;;8.52;4.03;;;14.50;74.60;;;;;;5036402;28;20037;-71
2022/04/27 05:39:31;;;;;;;9.38;5.40;;;14.60;74.00;;;;;;5036277;28;20040;-73
2022/04/27 05:41:56;;;;;;;14.73;4.30;;;14.80;73.20;;;;;;5018548;28;20108;-73
2022/04/27 05:44:25;;;;;;;9.80;4.10;;;15.00;72.80;;;;;;5036266;28;20093;-74
2022/04/27 05:46:53;;;;;;;12.13;4.55;;;15.20;72.30;;;;;;5036263;28;20112;-74
2022/04/27 05:49:19;;;;;;;10.98;4.53;;;15.50;70.90;;;;;;5036097;28;20399;-71
2022/04/27 05:51:45;;;;;;;15.43;4.57;;;15.70;70.00;;;;;;5036043;28;20036;-72
2022/04/27 05:54:13;;;;;;;7.43;4.07;;;15.90;69.30;;;;;;5034342;28;20485;-74
2022/04/27 05:56:40;;;;;;;8.63;3.83;;;16.00;68.50;;;;;;5035818;28;20036;-73
2022/04/27 05:59:07;;;;;;;8.48;3.70;;;16.10;67.40;;;;;;5035899;28;20101;-74
2022/04/27 06:01:32;;;;;;;6.88;3.80;;;16.20;66.60;;;;;;5034698;28;20022;-73
2022/04/27 06:03:58;;;;;;;11.02;4.47;;;16.30;66.40;;;;;;5035883;28;20022;-73
2022/04/27 06:06:24;;;;;;;10.38;4.13;;;16.60;66.30;;;;;;5035538;28;20364;-73
2022/04/27 06:08:50;;;;;;;14.00;4.70;;;16.80;65.50;;;;;;5017535;28;20180;-74
2022/04/27 06:11:16;;;;;;;13.75;4.60;;;17.00;64.90;;;;;;5035700;28;20394;-73
2022/04/27 06:13:43;;;;;;;16.75;4.85;;;17.10;64.10;;;;;;5034239;28;20095;-73
2022/04/27 06:16:09;;;;;;;9.65;3.95;;;17.30;63.70;;;;;;5035205;28;20041;-75
2022/04/27 06:18:34;;;;;;;9.82;4.22;;;17.40;62.50;;;;;;5035361;28;20034;-75
2022/04/27 06:21:00;;;;;;;8.95;4.60;;;17.50;62.80;;;;;;5035463;28;20033;-74
2022/04/27 06:23:26;;;;;;;10.13;4.43;;;17.50;62.30;;;;;;5035445;28;20036;-75
2022/04/27 06:25:52;;;;;;;11.20;3.92;;;17.50;62.60;;;;;;5035111;28;20017;-76
2022/04/27 06:28:18;;;;;;;11.13;4.68;;;17.60;62.30;;;;;;5035510;28;20032;-76
2022/04/27 06:30:45;;;;;;;9.30;4.65;;;17.70;62.30;;;;;;5034884;28;20025;-74
2022/04/27 06:33:11;;;;;;;17.20;5.38;;;17.70;60.90;;;;;;5035090;28;20490;-74
2022/04/27 06:35:37;;;;;;;7.78;4.70;;;17.80;61.60;;;;;;5017056;28;20029;-73
2022/04/27 06:38:03;;;;;;;13.73;4.88;;;17.90;61.30;;;;;;5033402;28;20155;-74
2022/04/27 06:40:29;;;;;;;9.82;4.55;;;18.10;61.00;;;;;;5033672;28;20471;-74
2022/04/27 06:42:56;;;;;;;11.95;4.68;;;18.40;59.50;;;;;;5034541;28;20079;-76
2022/04/27 06:45:27;;;;;;;11.27;4.30;;;18.60;58.70;;;;;;5034536;28;20021;-74
2022/04/27 06:47:56;;;;;;;10.55;3.95;;;18.70;58.10;;;;;;5034845;28;20101;-75
2022/04/27 06:50:22;;;;;;;11.30;3.97;;;18.80;56.30;;;;;;5034923;28;20196;-73
2022/04/27 06:52:48;;;;;;;9.15;4.10;;;18.90;57.90;;;;;;5034572;28;20213;-74
2022/04/27 06:55:15;;;;;;;9.90;3.92;;;19.10;57.90;;;;;;5034578;28;20116;-73
2022/04/27 06:57:41;;;;;;;13.15;4.38;;;19.00;56.80;;;;;;5034184;28;20045;-77
2022/04/27 07:00:12;;;;;;;9.50;4.43;;;19.10;57.00;;;;;;5035173;28;20033;-73
2022/04/27 07:02:39;;;;;;;10.38;4.03;;;19.30;55.00;;;;;;5034624;28;20041;-74
2022/04/27 07:05:06;;;;;;;12.18;4.15;;;19.20;56.50;;;;;;5033049;28;20079;-72
2022/04/27 07:07:33;;;;;;;8.18;3.90;;;19.20;55.60;;;;;;5034374;28;20024;-73
2022/04/27 07:09:59;;;;;;;9.18;4.45;;;19.20;55.70;;;;;;5034108;28;20378;-75
2022/04/27 07:12:25;;;;;;;8.13;4.63;;;19.20;55.50;;;;;;5034192;28;20467;-74
2022/04/27 07:14:51;;;;;;;12.20;3.90;;;19.40;55.60;;;;;;5033654;28;20032;-75
2022/04/27 07:17:18;;;;;;;11.57;3.65;;;19.50;55.50;;;;;;5016388;28;20520;-75
2022/04/27 07:19:44;;;;;;;8.45;3.75;;;19.50;55.00;;;;;;5034249;28;20411;-74
2022/04/27 07:22:11;;;;;;;8.25;4.00;;;19.40;55.00;;;;;;5034023;28;20094;-76
2022/04/27 07:24:37;;;;;;;8.95;3.90;;;19.50;54.60;;;;;;5034220;28;20025;-75
2022/04/27 07:27:04;;;;;;;6.53;3.70;;;19.40;55.60;;;;;;5034376;28;20032;-74
2022/04/27 07:29:30;;;;;;;8.55;3.63;;;19.60;55.00;;;;;;5016950;28;20033;-74
2022/04/27 07:31:56;;;;;;;9.70;3.85;;;19.70;54.50;;;;;;5020606;28;20536;-74
2022/04/27 07:34:22;;;;;;;8.10;3.50;;;19.70;54.80;;;;;;5039303;28;20029;-74
2022/04/27 07:36:47;;;;;;;10.98;3.92;;;19.70;54.60;;;;;;5036380;28;20499;-75
2022/04/27 07:39:13;;;;;;;9.88;3.28;;;19.90;54.10;;;;;;5033638;28;20031;-75
2022/04/27 07:41:39;;;;;;;9.43;3.10;;;20.00;54.70;;;;;;5033578;28;20383;-74
2022/04/27 07:44:06;;;;;;;10.05;3.50;;;20.00;53.90;;;;;;5015595;28;20116;-75
2022/04/27 07:46:33;;;;;;;6.50;3.30;;;19.90;53.40;;;;;;5033645;28;20537;-74
2022/04/27 07:48:58;;;;;;;12.13;3.90;;;19.90;53.40;;;;;;5032143;28;20336;-74
2022/04/27 07:51:24;;;;;;;9.88;3.17;;;19.90;53.70;;;;;;5033338;28;20033;-74
2022/04/27 07:53:50;;;;;;;7.68;3.28;;;19.90;53.40;;;;;;5033182;28;20406;-74
2022/04/27 07:56:15;;;;;;;11.90;3.25;;;20.10;54.00;;;;;;5033216;28;20078;-76
2022/04/27 07:58:41;;;;;;;12.57;3.80;;;20.20;54.20;;;;;;5015438;28;20022;-74
2022/04/27 08:01:07;;;;;;;9.20;3.22;;;20.30;53.90;;;;;;5032767;28;20482;-74
2022/04/27 08:03:33;;;;;;;9.95;3.90;;;20.30;54.00;;;;;;5032992;28;20066;-74
2022/04/27 08:06:01;;;;;;;10.52;3.30;;;20.30;53.40;;;;;;5032851;28;20362;-74
2022/04/27 08:08:27;;;;;;;8.93;3.50;;;20.20;53.20;;;;;;5032864;28;20029;-76
2022/04/27 08:10:53;;;;;;;10.23;3.25;;;20.10;53.60;;;;;;5033002;28;20037;-74
2022/04/27 08:13:18;;;;;;;8.82;2.78;;;20.20;53.70;;;;;;5033281;28;20127;-75
2022/04/27 08:15:44;;;;;;;10.43;3.90;;;20.20;54.20;;;;;;5033384;28;20045;-74
2022/04/27 08:18:10;;;;;;;6.68;3.20;;;20.30;53.80;;;;;;5033222;28;20064;-75
2022/04/27 08:23:32;;;;;;;8.98;3.20;;;20.20;53.60;;;;;;5033691;28;20049;-75
2022/04/27 08:26:00;;;;;;;8.45;3.50;;;20.20;53.90;;;;;;5033270;28;20100;-76
2022/04/27 08:28:28;;;;;;;9.23;3.92;;;20.30;54.00;;;;;;5032881;28;20107;-74
2022/04/27 08:30:54;;;;;;;8.02;3.58;;;20.30;52.80;;;;;;5032734;28;20032;-76
2022/04/27 08:33:20;;;;;;;7.35;3.58;;;20.20;53.70;;;;;;5031586;28;20112;-74
2022/04/27 08:35:47;;;;;;;10.52;3.55;;;20.10;54.00;;;;;;5032604;28;20097;-75
2022/04/27 08:38:13;;;;;;;10.63;3.40;;;20.10;53.90;;;;;;5032961;28;20460;-74
2022/04/27 08:40:44;;;;;;;9.73;3.30;;;20.10;53.90;;;;;;5032983;28;20033;-74
2022/04/27 08:43:11;;;;;;;22.50;3.50;;;20.10;53.50;;;;;;5032794;28;20029;-74
2022/04/27 08:45:41;;;;;;;14.15;2.95;;;20.10;53.60;;;;;;5032337;28;20044;-74
2022/04/27 08:48:08;;;;;;;6.40;2.20;;;20.10;53.00;;;;;;5032731;28;20434;-74
2022/04/27 08:50:34;;;;;;;7.68;2.47;;;20.10;52.00;;;;;;5032743;28;20080;-74
2022/04/27 08:53:00;;;;;;;9.43;2.70;;;20.00;52.50;;;;;;5032741;28;20021;-74
2022/04/27 08:55:29;;;;;;;7.85;2.38;;;20.10;52.40;;;;;;5014978;28;20029;-75
2022/04/27 08:58:09;;;;;;;7.55;3.03;;;20.20;52.10;;;;;;5031598;28;20044;-74
2022/04/27 09:00:35;;;;;;;6.40;2.28;;;20.30;51.60;;;;;;5033046;28;20080;-74
2022/04/27 09:03:29;;;;;;;6.22;2.58;;;20.30;52.50;;;;;;5031969;28;20042;-73
2022/04/27 09:06:03;;;;;;;7.82;2.45;;;20.40;51.40;;;;;;5033029;28;20061;-74
2022/04/27 09:08:38;;;;;;;;;;;20.40;51.60;;;;;;5032605;28;20021;-74
2022/04/27 09:11:32;;;;;;;7.63;2.33;;;20.40;49.40;;;;;;5015332;28;19905;-75
2022/04/27 09:13:59;;;;;;;10.20;3.28;;;20.40;50.80;;;;;;5031474;28;20071;-74
2022/04/27 09:20:46;;;;;;;11.10;2.85;;;20.50;51.20;;;;;;5032962;28;20057;-73
2022/04/27 09:22:04;;;;;;;9.50;2.80;;;20.70;49.80;;;;;;5032986;28;20131;-75
2022/04/27 09:24:51;;;;;;;9.98;3.15;;;20.70;49.90;;;;;;5032607;28;20370;-73
2022/04/27 09:27:19;;;;;;;8.45;2.72;;;20.80;49.50;;;;;;5031349;28;20029;-75
2022/04/27 09:30:14;;;;;;;14.32;3.83;;;20.90;50.50;;;;;;5032908;28;20040;-75
2022/04/27 09:32:51;;;;;;;12.73;2.83;;;21.00;50.20;;;;;;5032771;28;20034;-74
2022/04/27 09:35:32;;;;;;;7.32;2.75;;;21.20;50.20;;;;;;5033146;28;20056;-75
2022/04/27 09:38:14;;;;;;;6.57;2.20;;;21.30;49.50;;;;;;5032441;28;20040;-76
2022/04/27 09:40:44;;;;;;;8.07;2.35;;;21.30;48.30;;;;;;5031516;28;20097;-75
2022/04/27 09:43:15;;;;;;;6.30;1.88;;;21.40;48.00;;;;;;5033332;28;20103;-75
2022/04/27 09:45:44;;;;;;;6.47;2.20;;;21.40;47.00;;;;;;5036034;28;20509;-74
2022/04/27 09:48:18;;;;;;;6.55;1.80;;;21.40;46.50;;;;;;5036276;28;20060;-75
2022/04/27 09:50:49;;;;;;;8.25;2.13;;;21.40;45.00;;;;;;5036283;28;20022;-75
2022/04/27 09:53:19;;;;;;;7.18;1.40;;;21.40;45.10;;;;;;5035945;28;20022;-75
2022/04/27 09:55:54;;;;;;;6.07;1.80;;;21.50;45.40;;;;;;5035610;28;20432;-74
2022/04/27 09:58:24;;;;;;;3.63;1.60;;;21.60;44.80;;;;;;5018141;28;20076;-74
2022/04/27 10:00:52;;;;;;;7.70;1.90;;;21.60;43.60;;;;;;5034579;28;20053;-74
2022/04/27 10:03:18;;;;;;;5.70;1.67;;;21.70;43.90;;;;;;5036099;28;20017;-74
2022/04/27 10:05:45;;;;;;;4.80;2.05;;;21.70;44.00;;;;;;5035934;28;20021;-74
2022/04/27 10:08:15;;;;;;;7.18;1.85;;;21.80;44.10;;;;;;5035656;28;20048;-75
2022/04/27 10:10:42;;;;;;;4.72;1.70;;;21.90;43.40;;;;;;5035835;28;20116;-74
2022/04/27 10:13:13;;;;;;;9.20;1.95;;;22.00;43.00;;;;;;5034596;28;20026;-75
2022/04/27 10:15:46;;;;;;;7.78;2.03;;;22.10;44.20;;;;;;5038854;28;20095;-75
2022/04/27 10:18:20;;;;;;;4.55;1.95;;;22.20;44.30;;;;;;5038527;28;20059;-73
2022/04/27 10:20:54;;;;;;;4.85;1.77;;;22.20;43.00;;;;;;5038566;28;20055;-74
2022/04/27 10:23:22;;;;;;;10.13;1.80;;;22.30;42.70;;;;;;5035176;28;20022;-74
2022/04/27 10:26:09;;;;;;;5.68;2.45;;;22.30;42.40;;;;;;5035351;28;20041;-75
2022/04/27 10:28:59;;;;;;;4.38;1.52;;;22.40;43.00;;;;;;5033965;28;20025;-73
2022/04/27 10:31:40;;;;;;;25.10;2.95;;;22.50;41.90;;;;;;5035402;28;20474;-75
2022/04/27 10:34:22;;;;;;;7.15;1.70;;;22.50;42.60;;;;;;5035231;28;20025;-74
2022/04/27 10:36:51;;;;;;;3.78;1.52;;;22.60;41.90;;;;;;5035156;28;20029;-74
2022/04/27 10:39:19;;;;;;;3.95;1.60;;;22.70;42.00;;;;;;5035089;28;20064;-75
2022/04/27 10:41:54;;;;;;;3.40;1.63;;;22.80;42.10;;;;;;5034677;28;20052;-74
2022/04/27 10:44:20;;;;;;;3.42;1.60;;;22.80;41.30;;;;;;5034919;28;20028;-74
2022/04/27 10:46:46;;;;;;;7.05;1.83;;;22.70;41.80;;;;;;5035042;28;20055;-74
2022/04/27 10:49:24;;;;;;;6.18;1.75;;;22.80;42.00;;;;;;5034922;28;20061;-74
2022/04/27 10:52:09;;;;;;;6.30;1.73;;;22.80;41.70;;;;;;5034818;28;20025;-73
2022/04/27 10:54:37;;;;;;;6.70;2.67;;;22.90;41.10;;;;;;5034062;28;20022;-74
2022/04/27 10:57:15;;;;;;;7.40;2.35;;;22.90;41.30;;;;;;5033840;28;20498;-74
2022/04/27 10:59:56;;;;;;;4.70;1.75;;;23.10;42.40;;;;;;5033107;28;20025;-74
2022/04/27 11:02:41;;;;;;;4.38;1.90;;;23.20;42.70;;;;;;5034614;28;20035;-73
2022/04/27 11:05:13;;;;;;;8.25;2.08;;;23.20;41.90;;;;;;5033971;28;20114;-73
2022/04/27 11:07:51;;;;;;;4.95;2.10;;;23.30;42.20;;;;;;5034264;28;20045;-73
2022/04/27 11:10:21;;;;;;;14.15;8.77;;;23.40;41.70;;;;;;5034333;28;20029;-75
2022/04/27 11:12:49;;;;;;;28.15;11.07;;;23.50;41.20;;;;;;5034017;28;20028;-74
2022/04/27 11:15:23;;;;;;;9.93;3.20;;;23.60;40.40;;;;;;5034070;28;20087;-74
2022/04/27 11:18:03;;;;;;;4.85;2.00;;;23.70;40.50;;;;;;5033791;28;20048;-74
2022/04/27 11:20:30;;;;;;;15.55;2.85;;;23.70;39.90;;;;;;5034270;28;20014;-74
2022/04/27 11:22:57;;;;;;;7.60;2.00;;;23.80;40.40;;;;;;5034129;28;20033;-73
2022/04/27 11:25:26;;;;;;;4.43;1.60;;;23.90;40.00;;;;;;5033796;28;20525;-74
2022/04/27 11:27:53;;;;;;;3.53;1.50;;;23.90;40.00;;;;;;5033943;28;20030;-76
2022/04/27 11:30:20;;;;;;;4.35;1.92;;;23.90;39.50;;;;;;5016198;28;20026;-74
2022/04/27 11:32:47;;;;;;;5.93;2.55;;;23.80;39.10;;;;;;5033864;28;20053;-73
2022/04/27 11:35:14;;;;;;;3.25;1.70;;;23.90;39.10;;;;;;5016032;28;20030;-75
2022/04/27 11:37:40;;;;;;;3.95;1.63;;;23.90;38.90;;;;;;5034051;28;20034;-74
2022/04/27 11:40:16;;;;;;;5.63;2.28;;;24.00;38.90;;;;;;5033965;28;20071;-75
2022/04/27 11:42:43;;;;;;;5.43;2.10;;;24.10;39.50;;;;;;5032424;28;20067;-74
2022/04/27 11:45:11;;;;;;;7.05;2.40;;;24.10;40.50;;;;;;5033401;28;20495;-74
2022/04/27 11:47:36;;;;;;;7.07;2.10;;;24.20;42.40;;;;;;5032409;28;20025;-75
2022/04/27 11:50:04;;;;;;;8.88;2.63;;;24.30;43.20;;;;;;5033658;28;20033;-73
2022/04/27 11:52:31;;;;;;;7.97;2.40;;;24.40;43.80;;;;;;5033543;28;20036;-73
2022/04/27 11:55:10;;;;;;;4.72;2.30;;;24.40;44.10;;;;;;5033701;28;20021;-75
2022/04/27 11:57:36;;;;;;;8.13;2.50;;;24.40;44.70;;;;;;5033566;28;20493;-74
2022/04/27 12:00:03;;;;;;;8.48;2.20;;;24.30;45.10;;;;;;5032428;28;20147;-74
2022/04/27 12:02:30;;;;;;;11.25;2.67;;;24.40;45.60;;;;;;5033784;28;20501;-74
2022/04/27 12:04:57;;;;;;;6.13;2.22;;;24.40;45.70;;;;;;5033713;28;20025;-75
2022/04/27 12:07:23;;;;;;;6.10;2.30;;;24.40;46.10;;;;;;5033169;28;20107;-75
2022/04/27 12:10:00;;;;;;;8.18;2.20;;;24.40;46.20;;;;;;5033476;28;20103;-74
2022/04/27 12:12:30;;;;;;;6.65;2.00;;;24.40;46.30;;;;;;5033360;28;20526;-75
2022/04/27 12:14:57;;;;;;;9.38;2.33;;;24.40;46.50;;;;;;5032881;28;20029;-76
2022/04/27 12:17:42;;;;;;;9.98;2.38;;;24.30;46.60;;;;;;5033210;28;20475;-77
2022/04/27 12:20:10;;;;;;;8.70;2.10;;;24.40;46.80;;;;;;5031742;28;20032;-75
2022/04/27 12:22:35;;;;;;;6.07;2.30;;;24.50;46.10;;;;;;5033525;28;20382;-74
2022/04/27 12:25:07;;;;;;;4.15;1.67;;;24.50;46.60;;;;;;5033136;28;20579;-73
2022/04/27 12:27:33;;;;;;;7.32;1.90;;;24.50;46.70;;;;;;5015285;28;20493;-73
2022/04/27 12:30:06;;;;;;;6.55;1.90;;;24.50;46.30;;;;;;5032977;28;20021;-73
2022/04/27 12:32:32;;;;;;;4.47;1.63;;;24.50;45.40;;;;;;5032798;28;20029;-75
2022/04/27 12:37:54;;;;;;;8.73;1.90;;;24.40;44.90;;;;;;5032762;28;20057;-75
2022/04/27 12:40:21;;;;;;;4.95;1.70;;;24.50;44.50;;;;;;5032661;28;20022;-76
2022/04/27 12:42:59;;;;;;;3.85;1.42;;;24.50;44.40;;;;;;5033046;28;20025;-75
2022/04/27 12:45:35;;;;;;;6.43;1.67;;;24.60;44.90;;;;;;5032509;28;20031;-76
2022/04/27 12:48:05;;;;;;;5.93;1.70;;;24.70;44.40;;;;;;5032524;28;20041;-73
2022/04/27 12:50:45;;;;;;;7.60;2.83;;;24.80;43.60;;;;;;5032460;28;20028;-74
2022/04/27 12:53:11;;;;;;;5.38;2.00;;;24.90;44.00;;;;;;5032670;28;20029;-75
2022/04/27 12:55:38;;;;;;;5.97;1.70;;;25.00;43.80;;;;;;5015019;28;20044;-74
2022/04/27 12:58:04;;;;;;;5.22;1.63;;;25.00;43.80;;;;;;5032673;28;20490;-74
2022/04/27 13:00:45;;;;;;;4.68;1.58;;;25.10;43.50;;;;;;5032684;28;20075;-75
2022/04/27 13:03:12;;;;;;;9.70;1.88;;;25.10;43.20;;;;;;5032920;28;20188;-75
2022/04/27 13:05:42;;;;;;;5.28;1.73;;;25.10;43.30;;;;;;5032797;28;20076;-74
2022/04/27 13:08:09;;;;;;;4.95;1.52;;;25.10;43.20;;;;;;5031871;28;20029;-75